Time;durP1;ratioP1;P1;durP2;ratioP2;P2;SDS_P1;SDS_P2;PMS_P1;PMS_P2;Temp;Humidity;BMP_temperature;BMP_pressure;BME280_temperature;BME280_humidity;BME280_pressure;Samples;Min_cycle;Max_cycle;Signal;HPM_P1;HPM_P2
2021/05/21 05:00:25;;;;;;;4.47;4.10;;;;;;;10.59;89.95;94644.22;6150271;23;20022;31
2021/05/21 05:02:50;;;;;;;4.25;3.95;;;;;;;10.51;90.12;94649.47;6142967;23;20025;-70
2021/05/21 05:05:16;;;;;;;5.07;4.68;;;;;;;10.47;90.63;94645.63;6123193;23;20017;-73
2021/05/21 05:07:42;;;;;;;5.82;5.43;;;;;;;10.56;89.51;94647.19;6100705;23;20021;-73
2021/05/21 05:10:08;;;;;;;5.00;4.70;;;;;;;10.67;89.82;94657.06;6125382;23;20072;-73
2021/05/21 05:12:34;;;;;;;4.45;4.15;;;;;;;10.66;90.21;94659.84;6075624;23;20490;-71
2021/05/21 05:14:59;;;;;;;4.55;4.15;;;;;;;10.70;89.46;94661.91;6125571;23;20005;-70
2021/05/21 05:17:25;;;;;;;4.78;4.47;;;;;;;10.75;89.22;94658.78;6123641;23;20422;-73
2021/05/21 05:19:50;;;;;;;4.70;4.30;;;;;;;10.97;88.81;94648.31;6125635;23;20420;-73
2021/05/21 05:22:16;;;;;;;4.03;3.83;;;;;;;11.09;88.26;94657.22;6123521;23;20447;-73
2021/05/21 05:24:41;;;;;;;4.07;3.67;;;;;;;11.36;87.57;94657.53;6125343;23;20490;-70
2021/05/21 05:27:07;;;;;;;3.78;3.58;;;;;;;11.49;86.07;94652.50;6099656;23;20056;-73
2021/05/21 05:29:35;;;;;;;3.58;3.38;;;;;;;11.46;86.61;94656.25;6124193;23;20480;-74
2021/05/21 05:32:03;;;;;;;4.90;3.75;;;;;;;11.68;85.67;94656.28;6077470;23;20021;-73
2021/05/21 05:34:29;;;;;;;3.53;3.33;;;;;;;11.88;85.21;94662.50;6150392;23;20080;-73
2021/05/21 05:36:54;;;;;;;3.70;3.50;;;;;;;11.81;84.86;94661.63;6125549;23;20370;-74
2021/05/21 05:39:20;;;;;;;3.70;3.30;;;;;;;12.02;83.82;94670.22;6124003;23;20005;-73
2021/05/21 05:41:49;;;;;;;3.53;3.33;;;;;;;11.87;84.49;94669.47;6100998;23;20005;-78
2021/05/21 05:44:16;;;;;;;3.30;3.10;;;;;;;11.87;84.33;94664.28;6125364;23;20010;-77
2021/05/21 05:46:42;;;;;;;3.80;3.50;;;;;;;11.98;84.16;94663.78;6074972;23;20001;-78
2021/05/21 05:49:07;;;;;;;3.83;3.47;;;;;;;11.93;84.21;94673.13;6125321;23;20005;-77
2021/05/21 05:51:33;;;;;;;3.30;3.10;;;;;;;11.95;83.88;94674.53;6123490;23;20438;-77
2021/05/21 05:53:58;;;;;;;3.53;3.25;;;;;;;12.09;83.74;94680.66;6076528;23;20761;-76
2021/05/21 05:56:24;;;;;;;3.85;3.55;;;;;;;11.77;83.66;94683.75;6123573;23;20464;-77
2021/05/21 05:58:49;;;;;;;5.03;4.53;;;;;;;11.75;84.05;94683.91;6100618;23;20033;-77
2021/05/21 06:01:15;;;;;;;4.97;4.57;;;;;;;11.70;83.95;94678.47;6103491;23;20014;-78
2021/05/21 06:03:40;;;;;;;9.68;8.80;;;;;;;11.78;84.23;94693.94;6122702;23;20013;-78
2021/05/21 06:06:05;;;;;;;7.28;6.72;;;;;;;11.48;84.60;94692.38;6125109;23;20010;-78
2021/05/21 06:08:31;;;;;;;8.40;7.60;;;;;;;11.59;85.24;94703.06;6122745;23;20010;-77
2021/05/21 06:10:57;;;;;;;3.90;3.50;;;;;;;11.59;85.94;94707.47;6151033;23;20490;-77
2021/05/21 06:13:24;;;;;;;3.80;3.60;;;;;;;11.69;86.30;94702.78;6123114;23;20010;-77
2021/05/21 06:15:49;;;;;;;4.03;3.58;;;;;;;11.56;87.33;94705.22;6125375;23;20006;-77
2021/05/21 06:18:15;;;;;;;5.68;5.18;;;;;;;11.52;87.92;94716.97;6145763;23;20016;-76
2021/05/21 06:20:40;;;;;;;4.78;4.47;;;;;;;11.60;88.57;94722.03;6124550;23;20005;-77
2021/05/21 06:23:06;;;;;;;7.60;7.00;;;;;;;11.76;88.89;94721.84;6147595;23;20010;-76
2021/05/21 06:28:15;;;;;;;16.35;4.28;;;;;;;11.42;90.79;94739.78;6149277;23;20005;-76
2021/05/21 06:30:40;;;;;;;4.57;4.28;;;;;;;11.03;92.31;94738.28;6124297;23;20009;-76
2021/05/21 06:33:06;;;;;;;5.68;5.28;;;;;;;11.28;92.34;94733.63;6124943;23;20009;-76
2021/05/21 06:35:34;;;;;;;8.73;8.00;;;;;;;11.25;91.95;94743.53;6122620;23;20005;-75
2021/05/21 06:38:00;;;;;;;7.72;7.13;;;;;;;11.35;91.63;94744.06;6151016;23;20521;-75
2021/05/21 06:40:25;;;;;;;11.90;7.40;;;;;;;11.32;91.65;94749.63;6120068;23;20013;-75
2021/05/21 06:42:51;;;;;;;11.75;10.45;;;;;;;11.34;92.46;94751.06;6147906;23;20109;-75
2021/05/21 06:45:16;;;;;;;12.05;10.85;;;;;;;11.44;92.07;94748.97;6148787;23;20390;-76
2021/05/21 06:47:42;;;;;;;8.88;8.02;;;;;;;11.45;92.21;94752.38;6121959;23;20053;-75
2021/05/21 06:50:08;;;;;;;9.73;8.77;;;;;;;11.51;91.83;94736.91;6147839;23;20459;-75
2021/05/21 06:52:34;;;;;;;5.88;5.28;;;;;;;11.46;92.69;94741.03;6122790;23;20464;-75
2021/05/21 06:54:59;;;;;;;6.82;6.13;;;;;;;11.44;93.03;94737.81;6124336;23;20072;-74
2021/05/21 06:57:25;;;;;;;4.43;4.13;;;;;;;11.55;92.36;94750.31;6147863;23;20016;-75
2021/05/21 06:59:50;;;;;;;6.68;6.20;;;;;;;11.61;92.75;94747.81;6148481;23;20016;-75
2021/05/21 07:02:16;;;;;;;4.25;4.05;;;;;;;11.70;91.62;94752.88;6147894;23;20037;-76
2021/05/21 07:04:41;;;;;;;3.55;3.35;;;;;;;11.76;90.98;94747.78;6149392;23;20013;-76
2021/05/21 07:07:08;;;;;;;3.33;3.13;;;;;;;12.21;89.01;94756.22;6098817;23;20006;-76
2021/05/21 07:09:34;;;;;;;3.22;3.03;;;;;;;12.30;88.79;94757.72;6147003;23;20075;-77
2021/05/21 07:11:59;;;;;;;2.70;2.50;;;;;;;12.54;87.85;94757.34;6148832;23;20013;-76
2021/05/21 07:14:25;;;;;;;2.75;2.55;;;;;;;13.59;84.64;94758.03;6098388;23;20032;-72
2021/05/21 07:16:51;;;;;;;4.88;4.57;;;;;;;14.39;83.70;94754.69;6124893;23;20006;-73
2021/05/21 07:19:18;;;;;;;4.10;3.80;;;;;;;15.09;80.60;94754.88;6122740;23;20344;-76
2021/05/21 07:21:46;;;;;;;3.97;3.67;;;;;;;14.76;82.94;94761.94;6099679;23;20040;-76
2021/05/21 07:24:12;;;;;;;1.85;1.75;;;;;;;13.68;83.43;94749.06;6125399;23;20442;-73
2021/05/21 07:26:37;;;;;;;2.20;2.10;;;;;;;13.39;84.55;94757.94;6122218;23;20036;-74
2021/05/21 07:29:03;;;;;;;2.83;2.63;;;;;;;13.51;83.84;94766.00;6123948;23;20428;-73
2021/05/21 07:31:30;;;;;;;7.70;7.10;;;;;;;13.09;84.50;94757.38;6097294;23;20055;-74
2021/05/21 07:33:55;;;;;;;5.50;5.13;;;;;;;13.08;84.15;94762.72;6124880;23;20040;-73
2021/05/21 07:36:23;;;;;;;3.65;3.45;;;;;;;12.80;84.92;94767.94;6123011;23;20006;-72
2021/05/21 07:38:49;;;;;;;5.25;3.25;;;;;;;12.74;84.97;94773.91;6148165;23;20420;-76
2021/05/21 07:41:16;;;;;;;3.70;2.85;;;;;;;12.62;85.87;94773.59;6124165;23;20005;-73
2021/05/21 07:43:41;;;;;;;25.98;22.45;;;;;;;12.58;86.43;94779.38;6147204;23;20005;-74
2021/05/21 07:46:07;;;;;;;5.20;3.05;;;;;;;12.72;83.85;94781.06;6124071;23;20048;-75
2021/05/21 07:48:32;;;;;;;8.63;5.95;;;;;;;12.58;83.67;94790.56;6145732;23;20399;-75
2021/05/21 07:50:57;;;;;;;2.13;1.85;;;;;;;12.58;83.20;94781.97;6123491;23;20029;-75
2021/05/21 07:53:23;;;;;;;5.65;5.00;;;;;;;12.67;83.24;94786.84;6121055;23;20021;-74
2021/05/21 07:55:49;;;;;;;2.47;0.70;;;;;;;12.64;82.48;94782.03;6148905;23;20009;-74
2021/05/21 07:58:14;;;;;;;0.70;0.70;;;;;;;12.72;82.56;94778.47;6122872;23;20012;-75
2021/05/21 08:00:41;;;;;;;46.67;29.00;;;;;;;12.72;82.38;94780.25;6146085;23;20083;-76
2021/05/21 08:03:07;;;;;;;7.35;6.63;;;;;;;12.74;80.88;94786.09;6123468;23;20743;-75
2021/05/21 08:05:32;;;;;;;0.80;0.70;;;;;;;12.70;81.77;94796.06;6146487;23;20006;-75
2021/05/21 08:07:57;;;;;;;1.63;1.52;;;;;;;12.33;83.85;94804.13;6148378;23;20017;-75
2021/05/21 08:10:23;;;;;;;3.00;2.80;;;;;;;12.21;85.51;94814.16;6146666;23;20068;-74
2021/05/21 08:12:49;;;;;;;3.33;3.13;;;;;;;12.20;85.58;94811.78;6148533;23;20093;-74
2021/05/21 08:15:14;;;;;;;3.47;3.28;;;;;;;12.40;84.57;94808.38;6147952;23;20013;-75
2021/05/21 08:17:40;;;;;;;3.83;3.47;;;;;;;12.51;84.11;94807.88;6122769;23;20428;-76
2021/05/21 08:20:06;;;;;;;3.00;2.90;;;;;;;12.89;81.56;94800.59;6123965;23;20013;-75
2021/05/21 08:22:31;;;;;;;13.10;2.22;;;;;;;13.02;81.37;94800.69;6121829;23;20001;-75
2021/05/21 08:24:57;;;;;;;2.00;1.90;;;;;;;13.15;80.61;94806.03;6123570;23;20001;-76
2021/05/21 08:27:22;;;;;;;2.50;2.40;;;;;;;13.75;78.39;94822.78;6122038;23;20458;-76
2021/05/21 08:29:48;;;;;;;2.15;2.05;;;;;;;13.42;79.51;94822.59;6122727;23;20017;-74
2021/05/21 08:32:13;;;;;;;1.90;1.80;;;;;;;13.19;79.00;94820.25;6146202;23;20436;-75
2021/05/21 08:34:39;;;;;;;1.58;1.48;;;;;;;13.04;78.21;94836.91;6148075;23;20003;-76
2021/05/21 08:37:04;;;;;;;1.63;1.52;;;;;;;12.81;80.58;94834.50;6097281;23;20009;-75
2021/05/21 08:39:30;;;;;;;1.13;1.13;;;;;;;12.76;80.93;94838.66;6118099;23;20092;-75
2021/05/21 08:41:56;;;;;;;1.25;1.15;;;;;;;12.51;80.64;94840.84;6146838;23;20013;-75
2021/05/21 08:44:22;;;;;;;1.33;1.23;;;;;;;12.47;81.38;94842.19;6098175;23;20009;-76
2021/05/21 08:46:47;;;;;;;1.10;1.00;;;;;;;12.74;81.98;94857.06;6123496;23;20450;-75
2021/05/21 08:49:13;;;;;;;3.15;1.17;;;;;;;12.69;82.70;94859.41;6146225;23;20088;-75
2021/05/21 08:51:39;;;;;;;1.35;0.90;;;;;;;13.10;79.93;94856.97;6123284;23;20009;-76
2021/05/21 08:54:06;;;;;;;2.05;1.05;;;;;;;13.33;79.67;94862.75;6146652;23;20052;-77
2021/05/21 08:56:33;;;;;;;0.80;0.80;;;;;;;13.14;79.13;94858.22;6123709;23;20423;-75
2021/05/21 08:58:58;;;;;;;0.82;0.82;;;;;;;13.67;78.48;94852.38;6148702;23;20482;-76
2021/05/21 09:01:26;;;;;;;0.85;0.85;;;;;;;13.33;77.33;94861.94;6146060;23;20018;-76
2021/05/21 09:03:58;;;;;;;0.90;0.90;;;;;;;13.25;78.23;94856.91;6124279;23;20084;-76
2021/05/21 09:06:24;;;;;;;0.95;0.95;;;;;;;13.06;78.89;94860.94;6146662;23;20032;-75
2021/05/21 09:08:50;;;;;;;0.93;0.93;;;;;;;12.86;78.19;94865.97;6147364;23;20005;-75
2021/05/21 09:11:33;;;;;;;0.93;0.93;;;;;;;12.76;78.13;94865.47;6147037;23;19997;-76
2021/05/21 09:14:20;;;;;;;2.67;0.77;;;;;;;12.77;78.98;94876.66;6147054;23;20006;-76
2021/05/21 09:16:46;;;;;;;0.90;0.90;;;;;;;12.91;80.35;94879.19;6149210;23;20009;-76
2021/05/21 09:19:15;;;;;;;0.90;0.90;;;;;;;13.12;80.83;94879.22;6121115;23;20002;-74
2021/05/21 09:21:51;;;;;;;1.07;0.80;;;;;;;13.09;79.24;94879.59;6147089;23;20068;-77
2021/05/21 09:24:18;;;;;;;1.67;0.80;;;;;;;13.14;78.95;94887.63;6146194;23;20009;-77
2021/05/21 09:26:45;;;;;;;0.93;0.90;;;;;;;13.43;78.22;94884.03;6147082;23;20009;-75
2021/05/21 09:29:12;;;;;;;1.23;1.13;;;;;;;13.43;78.34;94897.06;6122899;23;20024;-76
2021/05/21 09:31:48;;;;;;;0.60;0.60;;;;;;;13.36;77.76;94885.78;6121914;23;20340;-75
2021/05/21 09:34:14;;;;;;;0.75;0.75;;;;;;;13.72;75.20;94883.84;6123990;23;20010;-76
2021/05/21 09:36:41;;;;;;;5.05;4.05;;;;;;;14.17;76.20;94886.84;6120983;23;20010;-75
2021/05/21 09:39:10;;;;;;;1.75;1.65;;;;;;;13.97;77.07;94901.56;6121406;23;20300;-75
2021/05/21 09:41:44;;;;;;;4.82;4.53;;;;;;;14.00;76.13;94906.44;6145426;23;20045;-75
2021/05/21 09:44:09;;;;;;;28.67;22.88;;;;;;;14.21;76.44;94908.94;6149093;23;20180;-75
2021/05/21 09:46:40;;;;;;;2.30;2.20;;;;;;;14.52;76.22;94900.63;6098178;23;20432;-75
2021/05/21 09:49:35;;;;;;;3.03;2.83;;;;;;;15.24;72.49;94896.38;6145076;23;20002;-78
2021/05/21 09:52:06;;;;;;;2.25;2.15;;;;;;;15.62;72.67;94895.75;6118770;23;20014;-79
2021/05/21 09:54:51;;;;;;;2.20;2.00;;;;;;;15.88;68.91;94890.50;6146919;23;20001;-77
2021/05/21 09:57:16;;;;;;;1.77;1.67;;;;;;;16.00;68.92;94895.88;6148530;23;20005;-76
2021/05/21 09:59:46;;;;;;;0.50;0.50;;;;;;;16.41;67.83;94892.94;6123576;23;20016;-78
2021/05/21 10:02:22;;;;;;;0.40;0.40;;;;;;;16.46;66.40;94883.47;6122156;23;20013;-76
2021/05/21 10:04:48;;;;;;;0.57;0.40;;;;;;;16.91;69.90;94892.09;6149444;23;20008;-77
2021/05/21 10:07:14;;;;;;;0.70;0.45;;;;;;;17.73;63.84;94891.06;6147188;23;20109;-77
2021/05/21 10:09:40;;;;;;;0.50;0.50;;;;;;;17.89;61.72;94887.88;6124735;23;20006;-77
2021/05/21 10:12:06;;;;;;;2.72;2.53;;;;;;;18.44;63.07;94889.50;6123157;23;20005;-75
2021/05/21 10:14:32;;;;;;;0.40;0.38;;;;;;;18.14;62.53;94893.09;6147429;23;20002;-77
2021/05/21 10:16:57;;;;;;;0.90;0.90;;;;;;;17.53;61.40;94887.81;6149331;23;20455;-74
2021/05/21 10:19:24;;;;;;;0.30;0.30;;;;;;;17.57;59.95;94889.81;6146917;23;20013;-77
2021/05/21 10:21:50;;;;;;;0.40;0.40;;;;;;;17.14;65.53;94883.69;6124889;23;20009;-76
2021/05/21 10:24:18;;;;;;;1.30;0.80;;;;;;;16.73;66.57;94899.84;6123357;23;20359;-74
2021/05/21 10:26:45;;;;;;;0.65;0.65;;;;;;;15.80;67.96;94890.69;6101935;23;20009;-73
2021/05/21 10:29:18;;;;;;;1.67;0.73;;;;;;;16.63;65.02;94889.81;6123390;23;20075;-75
2021/05/21 10:31:44;;;;;;;0.77;0.68;;;;;;;17.24;62.26;94894.50;6149392;23;20436;-75
2021/05/21 10:34:10;;;;;;;0.57;0.55;;;;;;;16.63;65.56;94908.13;6149096;23;20032;-78
2021/05/21 10:36:35;;;;;;;0.50;0.50;;;;;;;16.48;65.59;94878.00;6148835;23;20001;-78
2021/05/21 10:39:09;;;;;;;2.00;0.93;;;;;;;15.82;67.38;94896.53;6099020;23;20079;-77
2021/05/21 10:41:35;;;;;;;0.65;0.60;;;;;;;15.93;68.13;94906.34;6097358;23;20064;-76
2021/05/21 10:44:00;;;;;;;2.65;1.20;;;;;;;16.00;67.36;94916.78;6123661;23;20087;-74
2021/05/21 10:46:27;;;;;;;0.70;0.60;;;;;;;16.45;66.97;94912.41;6121947;23;20014;-79
2021/05/21 10:49:03;;;;;;;2.53;0.95;;;;;;;16.24;66.80;94909.09;6097927;23;20450;-77
2021/05/21 10:51:49;;;;;;;1.25;1.15;;;;;;;16.20;65.45;94915.75;6119172;23;20014;-78
2021/05/21 10:54:34;;;;;;;1.50;1.35;;;;;;;16.15;66.95;94922.59;6147274;23;20479;-78
2021/05/21 10:57:11;;;;;;;1.48;1.38;;;;;;;15.87;67.61;94922.84;6123799;23;20013;-79
2021/05/21 10:59:53;;;;;;;2.22;1.58;;;;;;;15.50;69.32;94920.88;6147618;23;20024;-77
2021/05/21 11:02:21;;;;;;;1.30;1.20;;;;;;;15.40;70.59;94917.84;6148358;23;20381;-78
2021/05/21 11:04:47;;;;;;;1.35;1.00;;;;;;;15.27;70.65;94922.06;6075898;23;20013;-78
2021/05/21 11:07:39;;;;;;;2.25;1.48;;;;;;;15.37;70.60;94923.47;6097553;23;20014;-75
2021/05/21 11:10:06;;;;;;;2.40;2.20;;;;;;;15.58;70.72;94931.91;6101681;23;20010;-77
2021/05/21 11:12:58;;;;;;;3.67;3.05;;;;;;;15.69;70.26;94925.28;6121421;23;20415;-77
2021/05/21 11:15:37;;;;;;;3.28;3.05;;;;;;;15.67;71.49;94922.06;6123444;23;20013;-77
2021/05/21 11:18:26;;;;;;;5.53;2.83;;;;;;;15.03;70.62;94903.56;6098812;23;20012;-77
2021/05/21 11:21:08;;;;;;;5.38;2.30;;;;;;;15.83;69.63;94925.06;6085822;23;20438;-76
2021/05/21 11:23:41;;;;;;;2.28;2.17;;;;;;;15.93;68.98;94929.06;6123118;23;20010;-79
2021/05/21 11:26:12;;;;;;;2.55;2.35;;;;;;;15.85;70.41;94932.69;6075754;23;20014;-77
2021/05/21 11:28:45;;;;;;;3.55;2.70;;;;;;;15.90;71.65;94935.50;6148073;23;20427;-77
2021/05/21 11:31:15;;;;;;;2.35;2.25;;;;;;;15.74;73.60;94941.94;6098083;23;20159;-76
2021/05/21 11:33:40;;;;;;;1.60;1.50;;;;;;;15.04;70.38;94941.69;6070727;23;20108;-73
2021/05/21 11:36:07;;;;;;;1.58;1.48;;;;;;;15.23;73.06;94940.91;6097285;23;20439;-74
2021/05/21 11:38:33;;;;;;;1.88;1.73;;;;;;;15.52;75.58;94955.41;6098127;23;20518;-76
2021/05/21 11:40:58;;;;;;;2.08;1.65;;;;;;;15.12;73.90;94952.72;6097304;23;19997;-76
2021/05/21 11:43:24;;;;;;;1.70;1.60;;;;;;;15.08;75.94;94959.38;6121019;23;20036;-74
2021/05/21 11:45:54;;;;;;;2.13;2.03;;;;;;;14.98;80.57;94964.16;6120501;23;20013;-73
2021/05/21 11:48:33;;;;;;;2.42;2.22;;;;;;;14.86;80.54;94970.94;6098539;23;20435;-77
2021/05/21 11:50:59;;;;;;;2.40;2.20;;;;;;;14.43;79.60;94967.78;6098294;23;20012;-77
2021/05/21 11:53:24;;;;;;;2.42;2.17;;;;;;;14.17;81.31;94967.59;6099045;23;20013;-73
2021/05/21 11:55:50;;;;;;;2.65;2.00;;;;;;;14.50;80.48;94970.41;6096489;23;20009;-73
2021/05/21 11:58:34;;;;;;;2.83;2.63;;;;;;;14.12;83.72;94973.41;6097798;23;20009;-74
2021/05/21 12:01:00;;;;;;;3.60;3.30;;;;;;;14.13;83.42;94964.56;6074633;23;20028;-74
2021/05/21 12:03:38;;;;;;;3.35;3.15;;;;;;;14.78;81.75;94973.72;6095589;23;20037;-74
2021/05/21 12:06:04;;;;;;;3.28;2.97;;;;;;;15.32;80.93;94961.41;6097540;23;20064;-79
2021/05/21 12:08:31;;;;;;;4.03;3.78;;;;;;;15.59;78.60;94970.09;6121696;23;20025;-75
2021/05/21 12:10:56;;;;;;;4.55;3.70;;;;;;;15.52;80.66;94978.91;6074674;23;20009;-77
2021/05/21 12:13:22;;;;;;;4.03;3.75;;;;;;;15.65;80.87;94984.13;6122398;23;20040;-77
2021/05/21 12:15:47;;;;;;;2.92;2.72;;;;;;;15.41;77.41;94980.25;6096267;23;20005;-76
2021/05/21 12:18:13;;;;;;;4.70;4.20;;;;;;;14.84;77.50;94975.53;6097306;23;20010;-76
2021/05/21 12:20:38;;;;;;;5.07;4.70;;;;;;;14.95;77.72;94971.56;6121262;23;20356;-73
2021/05/21 12:23:05;;;;;;;4.22;3.92;;;;;;;15.04;74.25;94973.78;6122443;23;20504;-75
2021/05/21 12:25:32;;;;;;;4.15;3.85;;;;;;;15.22;75.63;94974.03;6122106;23;20005;-77
2021/05/21 12:27:58;;;;;;;4.50;3.75;;;;;;;15.50;74.86;94971.28;6122645;23;20451;-76
2021/05/21 12:30:24;;;;;;;3.85;3.65;;;;;;;15.90;73.40;94958.19;6098137;23;20466;-74
2021/05/21 12:32:49;;;;;;;3.63;3.38;;;;;;;14.91;72.81;94945.06;6098043;23;20001;-74
2021/05/21 12:35:17;;;;;;;3.35;3.03;;;;;;;15.41;71.03;94953.38;6123021;23;20016;-73
2021/05/21 12:37:48;;;;;;;3.58;3.35;;;;;;;16.13;73.43;94950.72;6147220;23;20012;-78
2021/05/21 12:40:15;;;;;;;4.05;3.70;;;;;;;16.83;71.25;94939.44;6099088;23;20036;-76
2021/05/21 12:42:50;;;;;;;3.50;3.30;;;;;;;17.11;68.65;94944.31;6096903;23;20064;-76
2021/05/21 12:45:17;;;;;;;3.42;3.15;;;;;;;16.70;70.21;94940.31;6122852;23;20471;-77
2021/05/21 12:47:50;;;;;;;5.20;4.80;;;;;;;17.11;67.57;94946.94;6086991;23;20002;-77
2021/05/21 12:50:16;;;;;;;4.45;3.22;;;;;;;17.12;65.43;94943.28;6073540;23;20096;-78
2021/05/21 12:52:52;;;;;;;3.53;3.22;;;;;;;17.55;65.38;94953.88;6072675;23;20010;-77
2021/05/21 12:55:17;;;;;;;3.70;3.50;;;;;;;18.23;66.62;94960.75;6120846;23;20009;-78
2021/05/21 12:57:43;;;;;;;3.58;3.38;;;;;;;18.24;65.37;94967.59;6120604;23;20006;-75
2021/05/21 13:00:09;;;;;;;3.22;3.03;;;;;;;18.59;65.60;94959.97;6120602;23;20085;-77
2021/05/21 13:02:36;;;;;;;3.67;3.03;;;;;;;18.70;63.29;94964.50;6120439;23;20100;-80
2021/05/21 13:05:02;;;;;;;2.83;2.63;;;;;;;18.64;63.37;94964.56;6122175;23;20005;-75
2021/05/21 13:07:27;;;;;;;3.50;2.80;;;;;;;18.28;64.89;94966.13;6147984;23;20012;-80
2021/05/21 13:09:54;;;;;;;3.75;3.05;;;;;;;18.68;65.12;94960.50;6073600;23;20001;-78
2021/05/21 13:12:29;;;;;;;2.78;2.55;;;;;;;19.14;61.60;94963.31;6121048;23;20040;-75
2021/05/21 13:14:54;;;;;;;2.58;2.10;;;;;;;18.08;62.39;94962.91;6071565;23;20037;-78
2021/05/21 13:17:20;;;;;;;4.35;2.55;;;;;;;18.11;62.56;94962.47;6095490;23;20002;-79
2021/05/21 13:19:45;;;;;;;2.38;2.28;;;;;;;17.92;66.86;94963.47;6073902;23;20464;-80
2021/05/21 13:22:14;;;;;;;3.35;3.10;;;;;;;18.02;63.29;94973.44;6121988;23;20321;-79
2021/05/21 13:24:41;;;;;;;2.08;1.98;;;;;;;17.95;63.06;94963.03;6145521;23;20422;-80
2021/05/21 13:27:06;;;;;;;2.65;2.30;;;;;;;17.50;63.00;94961.59;6075036;23;20072;-78
2021/05/21 13:29:32;;;;;;;2.55;2.40;;;;;;;17.30;62.14;94969.56;6148186;23;20012;-78
2021/05/21 13:31:57;;;;;;;3.30;2.72;;;;;;;16.96;67.81;94976.00;6124428;23;20355;-77
2021/05/21 13:34:23;;;;;;;4.10;3.80;;;;;;;17.17;65.97;94970.47;6098287;23;20085;-79
2021/05/21 13:36:48;;;;;;;2.25;2.15;;;;;;;17.22;63.68;94962.75;6099710;23;20002;-77
2021/05/21 13:39:14;;;;;;;4.43;2.38;;;;;;;17.22;63.84;94967.19;6123006;23;20346;-77
2021/05/21 13:41:39;;;;;;;1.98;1.88;;;;;;;17.35;64.34;94961.88;6099522;23;20053;-77
2021/05/21 13:44:05;;;;;;;2.55;1.75;;;;;;;17.54;63.82;94957.50;6124090;23;20009;-77
2021/05/21 13:46:31;;;;;;;11.32;2.40;;;;;;;17.66;63.27;94956.63;6123008;23;20084;-78
2021/05/21 13:48:56;;;;;;;1.65;1.55;;;;;;;17.45;61.03;94954.34;6099858;23;20032;-78
2021/05/21 13:51:22;;;;;;;1.95;1.80;;;;;;;17.20;63.82;94951.72;6097354;23;20005;-77
2021/05/21 13:53:47;;;;;;;2.20;2.00;;;;;;;17.47;63.02;94951.50;6099241;23;20435;-77
2021/05/21 13:56:13;;;;;;;1.90;1.80;;;;;;;18.00;61.20;94959.78;6122469;23;20006;-78
2021/05/21 13:58:40;;;;;;;4.72;2.20;;;;;;;17.81;59.97;94954.50;6098968;23;20002;-78
2021/05/21 14:01:06;;;;;;;2.70;2.50;;;;;;;17.89;60.87;94946.34;6122793;23;20016;-76
2021/05/21 14:03:31;;;;;;;2.58;2.38;;;;;;;17.22;62.01;94952.28;6097778;23;20005;-78
2021/05/21 14:05:57;;;;;;;2.00;1.90;;;;;;;16.97;61.59;94951.44;6149912;23;20007;-77
2021/05/21 14:08:22;;;;;;;2.17;1.95;;;;;;;16.95;63.64;94953.47;6122283;23;20669;-77
2021/05/21 14:10:48;;;;;;;3.10;1.80;;;;;;;16.99;64.47;94945.97;6122800;23;20009;-75
2021/05/21 14:13:13;;;;;;;2.15;1.77;;;;;;;16.94;64.65;94957.09;6098684;23;20014;-75
2021/05/21 14:15:39;;;;;;;1.75;1.65;;;;;;;16.92;63.14;94951.25;6071129;23;20040;-75
2021/05/21 14:18:04;;;;;;;4.80;1.77;;;;;;;16.92;63.78;94947.84;6097782;23;20005;-76
2021/05/21 14:20:29;;;;;;;2.80;1.48;;;;;;;16.77;64.94;94948.91;6147988;23;20009;-75
2021/05/21 14:22:56;;;;;;;1.50;1.40;;;;;;;16.97;63.54;94945.41;6123057;23;20024;-74
2021/05/21 14:25:28;;;;;;;4.05;2.00;;;;;;;16.68;63.27;94939.72;6097882;23;20001;-76
2021/05/21 14:27:53;;;;;;;2.28;1.80;;;;;;;17.04;64.19;94954.03;6102091;23;20009;-74
2021/05/21 14:30:19;;;;;;;2.00;1.88;;;;;;;17.23;62.34;94955.72;6123188;23;20013;-74
2021/05/21 14:32:47;;;;;;;1.50;1.40;;;;;;;17.37;60.85;94954.59;6099667;23;20009;-73
2021/05/21 14:35:13;;;;;;;1.50;1.30;;;;;;;17.39;61.22;94945.53;6098470;23;20712;-75
2021/05/21 14:37:38;;;;;;;1.70;1.60;;;;;;;17.49;61.04;94950.31;6098643;23;20009;-72
2021/05/21 14:40:04;;;;;;;1.60;1.50;;;;;;;17.39;63.10;94955.22;6122793;23;20009;-72
2021/05/21 14:42:30;;;;;;;3.33;1.60;;;;;;;17.47;61.95;94944.47;6122811;23;20032;-73
2021/05/21 14:44:55;;;;;;;1.48;1.38;;;;;;;17.22;61.45;94952.28;6124267;23;20435;-75
2021/05/21 14:47:21;;;;;;;1.80;1.70;;;;;;;17.27;63.86;94959.53;6123422;23;20005;-74
2021/05/21 14:49:46;;;;;;;1.70;1.60;;;;;;;17.51;62.00;94952.69;6124319;23;20439;-75
2021/05/21 14:52:12;;;;;;;1.58;1.42;;;;;;;17.14;57.94;94957.00;6098714;23;20076;-74
2021/05/21 14:54:37;;;;;;;1.00;1.00;;;;;;;17.28;58.73;94950.63;6118879;23;20005;-75
2021/05/21 14:57:03;;;;;;;1.25;1.25;;;;;;;17.42;59.95;94960.03;6097588;23;20012;-74
2021/05/21 14:59:28;;;;;;;1.10;1.10;;;;;;;17.30;58.11;94959.91;6098628;23;20006;-75
2021/05/21 15:01:54;;;;;;;2.25;1.33;;;;;;;17.20;60.94;94962.19;6131795;23;20021;-74
2021/05/21 15:04:22;;;;;;;2.17;1.20;;;;;;;17.59;60.25;94961.13;6119927;23;20036;-75
2021/05/21 15:06:48;;;;;;;1.20;1.10;;;;;;;16.91;57.96;94957.53;6149553;23;20005;-76
2021/05/21 15:09:14;;;;;;;1.05;1.00;;;;;;;16.65;59.44;94962.88;6146485;23;20017;-74
2021/05/21 15:11:46;;;;;;;1.20;1.20;;;;;;;16.87;59.92;94961.56;6120782;23;20069;-74
2021/05/21 15:14:13;;;;;;;3.33;1.33;;;;;;;17.20;59.52;94962.19;6145844;23;20005;-74
2021/05/21 15:24:54;;;;;;;1.48;1.35;;;;;;;16.98;61.18;94947.00;6147370;23;20595;-74
2021/05/21 15:27:20;;;;;;;1.63;1.50;;;;;;;16.80;61.31;94955.53;6125453;23;20006;-75
2021/05/21 15:29:46;;;;;;;2.55;1.30;;;;;;;16.71;62.00;94955.00;6148115;23;20009;-74
2021/05/21 15:32:11;;;;;;;1.55;1.45;;;;;;;16.52;61.49;94948.00;6148344;23;20010;-74
2021/05/21 15:34:38;;;;;;;1.65;1.55;;;;;;;16.48;65.89;94956.44;6097400;23;20456;-74
2021/05/21 15:37:03;;;;;;;2.60;1.77;;;;;;;16.46;67.71;94954.06;6147113;23;20234;-74
2021/05/21 15:39:30;;;;;;;3.63;1.73;;;;;;;16.54;63.60;94966.88;6145850;23;20329;-74
2021/05/21 15:47:18;;;;;;;1.50;1.40;;;;;;;16.86;57.74;94933.78;6127374;23;20064;-73
2021/05/21 15:49:52;;;;;;;2.22;1.33;;;;;;;16.89;57.66;94937.81;6122875;23;20005;-71
2021/05/21 15:52:25;;;;;;;2.15;1.13;;;;;;;16.85;58.47;94926.97;6148146;23;20012;-74
2021/05/21 15:54:56;;;;;;;1.30;1.20;;;;;;;16.75;59.05;94929.22;6146297;23;20006;-74
2021/05/21 16:00:06;;;;;;;1.77;1.67;;;;;;;16.96;63.32;94935.94;6149289;23;20368;-74
2021/05/21 16:02:31;;;;;;;1.75;1.63;;;;;;;16.99;61.23;94936.31;6098317;23;20013;-73
2021/05/21 16:04:57;;;;;;;1.67;1.58;;;;;;;17.02;59.89;94932.47;6121086;23;20009;-75
2021/05/21 16:07:22;;;;;;;1.25;1.20;;;;;;;17.09;59.58;94931.44;6099244;23;20010;-73
2021/05/21 16:09:58;;;;;;;2.55;1.92;;;;;;;17.08;60.75;94934.28;6120892;23;20443;-74
2021/05/21 16:12:24;;;;;;;2.20;1.35;;;;;;;17.07;59.81;94930.84;6149724;23;20005;-75
2021/05/21 16:14:50;;;;;;;3.60;1.70;;;;;;;16.97;61.51;94935.75;6143276;23;20005;-75
2021/05/21 16:17:16;;;;;;;2.15;1.60;;;;;;;16.99;62.65;94927.66;6146898;23;20057;-73
2021/05/21 16:19:43;;;;;;;2.10;1.38;;;;;;;16.76;60.50;94933.44;6120677;23;20016;-74
2021/05/21 16:22:09;;;;;;;1.42;1.20;;;;;;;16.61;60.73;94930.28;6145551;23;20640;-74
2021/05/21 16:24:34;;;;;;;1.35;1.25;;;;;;;16.61;61.09;94940.75;6146407;23;20036;-74
2021/05/21 16:26:59;;;;;;;1.88;1.77;;;;;;;16.61;62.32;94945.97;6120049;23;20041;-74
2021/05/21 16:29:25;;;;;;;2.17;1.50;;;;;;;16.48;63.14;94932.91;6121842;23;20438;-74
2021/05/21 16:31:50;;;;;;;2.20;1.48;;;;;;;16.40;63.96;94941.00;6120581;23;20343;-74
2021/05/21 16:34:17;;;;;;;2.95;1.60;;;;;;;16.29;63.49;94939.81;6122720;23;20013;-73
2021/05/21 16:36:42;;;;;;;7.90;2.10;;;;;;;16.18;63.53;94932.63;6118576;23;20009;-74
2021/05/21 16:39:09;;;;;;;3.78;1.70;;;;;;;16.08;64.42;94943.53;6146984;23;20010;-75
2021/05/21 16:41:35;;;;;;;1.75;1.65;;;;;;;15.98;63.87;94940.53;6122779;23;20009;-74
2021/05/21 16:44:00;;;;;;;2.97;1.90;;;;;;;15.89;63.93;94946.97;6097437;23;20466;-75
2021/05/21 16:46:26;;;;;;;1.90;1.80;;;;;;;15.77;64.55;94943.34;6147859;23;20005;-75
2021/05/21 16:48:51;;;;;;;1.73;1.63;;;;;;;15.69;65.63;94951.41;6094569;23;20009;-75
2021/05/21 16:51:17;;;;;;;2.30;2.20;;;;;;;15.60;66.28;94952.63;6146962;23;20399;-74
2021/05/21 16:53:42;;;;;;;5.07;3.05;;;;;;;15.58;66.44;94959.81;6120958;23;20443;-75